sensor_id;sensor_type;location;lat;lon;timestamp;pressure;altitude;pressure_sealevel;temperature;humidity
62680;BME280;68213;40.528;44.712;2023-07-13T00:00:22;81026.34;;;9.74;66.37
62680;BME280;68213;40.528;44.712;2023-07-13T00:01:23;81024.94;;;9.73;66.50
62680;BME280;68213;40.528;44.712;2023-07-13T00:02:24;81030.34;;;9.75;66.40
62680;BME280;68213;40.528;44.712;2023-07-13T00:03:29;81030.47;;;9.77;65.96
62680;BME280;68213;40.528;44.712;2023-07-13T00:04:36;81029.09;;;9.76;66.67
62680;BME280;68213;40.528;44.712;2023-07-13T00:05:37;81030.34;;;9.75;66.70
62680;BME280;68213;40.528;44.712;2023-07-13T00:06:38;81027.56;;;9.73;67.53
62680;BME280;68213;40.528;44.712;2023-07-13T00:07:39;81024.00;;;9.68;67.60
62680;BME280;68213;40.528;44.712;2023-07-13T00:08:39;81020.56;;;9.66;68.03
62680;BME280;68213;40.528;44.712;2023-07-13T00:09:40;81022.94;;;9.62;66.84
62680;BME280;68213;40.528;44.712;2023-07-13T00:10:42;81032.00;;;9.71;67.28
62680;BME280;68213;40.528;44.712;2023-07-13T00:11:43;81032.72;;;9.71;66.55
62680;BME280;68213;40.528;44.712;2023-07-13T00:12:44;81026.91;;;9.73;66.75
62680;BME280;68213;40.528;44.712;2023-07-13T00:13:45;81020.69;;;9.68;66.59
62680;BME280;68213;40.528;44.712;2023-07-13T00:14:46;81017.94;;;9.66;66.52
62680;BME280;68213;40.528;44.712;2023-07-13T00:15:47;81015.44;;;9.68;66.51
62680;BME280;68213;40.528;44.712;2023-07-13T00:16:48;81026.47;;;9.76;66.32
62680;BME280;68213;40.528;44.712;2023-07-13T00:17:53;81029.22;;;9.78;66.14
62680;BME280;68213;40.528;44.712;2023-07-13T00:18:55;81012.56;;;9.64;66.13
62680;BME280;68213;40.528;44.712;2023-07-13T00:19:59;81032.97;;;9.75;66.52
62680;BME280;68213;40.528;44.712;2023-07-13T00:20:59;81034.34;;;9.76;66.13
62680;BME280;68213;40.528;44.712;2023-07-13T00:22:05;81027.47;;;9.71;65.75
62680;BME280;68213;40.528;44.712;2023-07-13T00:23:06;81029.09;;;9.76;65.68
62680;BME280;68213;40.528;44.712;2023-07-13T00:24:08;81031.16;;;9.78;65.96
62680;BME280;68213;40.528;44.712;2023-07-13T00:25:13;81009.97;;;9.64;65.76
62680;BME280;68213;40.528;44.712;2023-07-13T00:26:14;81034.34;;;9.76;65.68
62680;BME280;68213;40.528;44.712;2023-07-13T00:27:15;81030.63;;;9.69;65.84
62680;BME280;68213;40.528;44.712;2023-07-13T00:28:15;81027.19;;;9.67;64.95
62680;BME280;68213;40.528;44.712;2023-07-13T00:29:16;81030.94;;;9.64;65.14
62680;BME280;68213;40.528;44.712;2023-07-13T00:30:17;81033.56;;;9.64;65.05
62680;BME280;68213;40.528;44.712;2023-07-13T00:31:18;81032.75;;;9.61;64.79
62680;BME280;68213;40.528;44.712;2023-07-13T00:32:19;81032.75;;;9.61;64.76
62680;BME280;68213;40.528;44.712;2023-07-13T00:33:20;81031.25;;;9.58;64.64
62680;BME280;68213;40.528;44.712;2023-07-13T00:34:20;81030.28;;;9.53;65.05
62680;BME280;68213;40.528;44.712;2023-07-13T00:35:22;81027.53;;;9.51;65.22
62680;BME280;68213;40.528;44.712;2023-07-13T00:36:22;81027.53;;;9.51;65.11
62680;BME280;68213;40.528;44.712;2023-07-13T00:37:23;81024.78;;;9.49;65.16
62680;BME280;68213;40.528;44.712;2023-07-13T00:38:24;81031.84;;;9.47;65.13
62680;BME280;68213;40.528;44.712;2023-07-13T00:39:25;81028.25;;;9.42;65.19
62680;BME280;68213;40.528;44.712;2023-07-13T00:40:25;81032.44;;;9.35;65.47
62680;BME280;68213;40.528;44.712;2023-07-13T00:41:29;81028.47;;;9.25;65.01
62680;BME280;68213;40.528;44.712;2023-07-13T00:42:30;81025.03;;;9.22;65.03
62680;BME280;68213;40.528;44.712;2023-07-13T00:43:31;81022.56;;;9.14;64.93
62680;BME280;68213;40.528;44.712;2023-07-13T00:44:32;81027.38;;;9.18;65.43
62680;BME280;68213;40.528;44.712;2023-07-13T00:46:34;81022.69;;;9.16;64.75
62680;BME280;68213;40.528;44.712;2023-07-13T00:47:35;81020.06;;;9.16;64.37
62680;BME280;68213;40.528;44.712;2023-07-13T00:48:36;81012.47;;;9.11;63.98
62680;BME280;68213;40.528;44.712;2023-07-13T00:49:38;81025.56;;;9.20;64.03
62680;BME280;68213;40.528;44.712;2023-07-13T00:50:41;81028.47;;;9.25;63.80
62680;BME280;68213;40.528;44.712;2023-07-13T00:51:49;81024.59;;;9.26;63.16
62680;BME280;68213;40.528;44.712;2023-07-13T00:52:53;81027.91;;;9.26;63.17
62680;BME280;68213;40.528;44.712;2023-07-13T00:53:58;81020.72;;;9.27;63.28
62680;BME280;68213;40.528;44.712;2023-07-13T00:54:59;81021.28;;;9.25;63.24
62680;BME280;68213;40.528;44.712;2023-07-13T00:56:00;81023.91;;;9.25;63.08
62680;BME280;68213;40.528;44.712;2023-07-13T00:57:09;81020.72;;;9.27;63.20
62680;BME280;68213;40.528;44.712;2023-07-13T00:58:11;81023.34;;;9.27;62.91
62680;BME280;68213;40.528;44.712;2023-07-13T00:59:13;81023.34;;;9.27;62.99
62680;BME280;68213;40.528;44.712;2023-07-13T01:00:15;81022.50;;;9.24;63.10
62680;BME280;68213;40.528;44.712;2023-07-13T01:01:18;81025.69;;;9.23;63.28
62680;BME280;68213;40.528;44.712;2023-07-13T01:02:19;81022.94;;;9.20;63.16
62680;BME280;68213;40.528;44.712;2023-07-13T01:03:20;81023.50;;;9.19;63.67
62680;BME280;68213;40.528;44.712;2023-07-13T01:04:24;81025.44;;;9.18;63.62
62680;BME280;68213;40.528;44.712;2023-07-13T01:05:25;81028.06;;;9.18;63.70
62680;BME280;68213;40.528;44.712;2023-07-13T01:06:28;81030.13;;;9.20;63.49
62680;BME280;68213;40.528;44.712;2023-07-13T01:07:29;81031.50;;;9.21;63.48
62680;BME280;68213;40.528;44.712;2023-07-13T01:08:30;81025.16;;;9.14;63.99
62680;BME280;68213;40.528;44.712;2023-07-13T01:09:30;81020.78;;;9.07;64.03
62680;BME280;68213;40.528;44.712;2023-07-13T01:10:31;81036.47;;;9.17;63.66
62680;BME280;68213;40.528;44.712;2023-07-13T01:11:39;81035.94;;;9.18;64.01
62680;BME280;68213;40.528;44.712;2023-07-13T01:12:44;81025.34;;;9.07;63.83
62680;BME280;68213;40.528;44.712;2023-07-13T01:13:45;81035.00;;;9.14;64.17
62680;BME280;68213;40.528;44.712;2023-07-13T01:14:45;81034.84;;;9.12;64.44
62680;BME280;68213;40.528;44.712;2023-07-13T01:16:54;81036.78;;;9.11;64.30
62680;BME280;68213;40.528;44.712;2023-07-13T01:17:56;81038.03;;;9.10;64.27
62680;BME280;68213;40.528;44.712;2023-07-13T01:18:57;81027.00;;;9.02;64.59
62680;BME280;68213;40.528;44.712;2023-07-13T01:19:58;81036.50;;;9.07;64.74
62680;BME280;68213;40.528;44.712;2023-07-13T01:21:02;81039.69;;;9.05;65.08
62680;BME280;68213;40.528;44.712;2023-07-13T01:22:22;81037.63;;;9.04;64.93
62680;BME280;68213;40.528;44.712;2023-07-13T01:23:28;81038.31;;;9.04;64.96
62680;BME280;68213;40.528;44.712;2023-07-13T01:24:29;81034.88;;;9.02;64.70
62680;BME280;68213;40.528;44.712;2023-07-13T01:25:29;81035.97;;;8.99;64.88
62680;BME280;68213;40.528;44.712;2023-07-13T01:26:30;81031.28;;;8.97;64.40
62680;BME280;68213;40.528;44.712;2023-07-13T01:27:31;81035.97;;;8.99;64.26
62680;BME280;68213;40.528;44.712;2023-07-13T01:28:31;81032.13;;;9.00;64.12
62680;BME280;68213;40.528;44.712;2023-07-13T01:29:38;81036.25;;;9.03;63.78
62680;BME280;68213;40.528;44.712;2023-07-13T01:30:43;81036.50;;;9.07;63.39
62680;BME280;68213;40.528;44.712;2023-07-13T01:31:47;81041.91;;;9.09;63.58
62680;BME280;68213;40.528;44.712;2023-07-13T01:32:48;81028.06;;;9.09;63.73
62680;BME280;68213;40.528;44.712;2023-07-13T01:33:49;81029.34;;;9.08;63.76
62680;BME280;68213;40.528;44.712;2023-07-13T01:34:51;81012.13;;;8.95;63.28
62680;BME280;68213;40.528;44.712;2023-07-13T01:35:54;81030.84;;;9.11;63.51
62680;BME280;68213;40.528;44.712;2023-07-13T01:36:57;81035.41;;;9.10;63.70
62680;BME280;68213;40.528;44.712;2023-07-13T01:37:58;81024.91;;;9.10;63.33
62680;BME280;68213;40.528;44.712;2023-07-13T01:39:00;81033.47;;;9.11;63.36
62680;BME280;68213;40.528;44.712;2023-07-13T01:40:03;81029.75;;;9.14;63.08
62680;BME280;68213;40.528;44.712;2023-07-13T01:41:04;81029.75;;;9.14;63.21
62680;BME280;68213;40.528;44.712;2023-07-13T01:42:05;81042.28;;;9.15;62.77
62680;BME280;68213;40.528;44.712;2023-07-13T01:43:06;81030.00;;;9.18;62.57
62680;BME280;68213;40.528;44.712;2023-07-13T01:44:07;81029.44;;;9.19;62.56
62680;BME280;68213;40.528;44.712;2023-07-13T01:45:08;81034.81;;;9.21;62.10
62680;BME280;68213;40.528;44.712;2023-07-13T01:46:09;81030.94;;;9.23;61.82
62680;BME280;68213;40.528;44.712;2023-07-13T01:47:10;81034.38;;;9.25;61.74
62680;BME280;68213;40.528;44.712;2023-07-13T01:48:11;81031.22;;;9.27;61.54
62680;BME280;68213;40.528;44.712;2023-07-13T01:49:12;81029.84;;;9.26;61.47
62680;BME280;68213;40.528;44.712;2023-07-13T01:50:14;81031.22;;;9.27;61.54
62680;BME280;68213;40.528;44.712;2023-07-13T01:51:15;81042.41;;;9.27;61.47
62680;BME280;68213;40.528;44.712;2023-07-13T01:52:16;81039.22;;;9.29;61.40
62680;BME280;68213;40.528;44.712;2023-07-13T01:53:17;81028.72;;;9.29;61.50
62680;BME280;68213;40.528;44.712;2023-07-13T01:54:17;81034.66;;;9.29;61.33
62680;BME280;68213;40.528;44.712;2023-07-13T01:55:19;81036.06;;;9.30;61.15
62680;BME280;68213;40.528;44.712;2023-07-13T01:56:23;81036.72;;;9.31;61.10
62680;BME280;68213;40.528;44.712;2023-07-13T01:57:23;81039.50;;;9.33;60.66
62680;BME280;68213;40.528;44.712;2023-07-13T01:58:26;81049.97;;;9.33;60.57
62680;BME280;68213;40.528;44.712;2023-07-13T01:59:27;81044.03;;;9.32;60.51
62680;BME280;68213;40.528;44.712;2023-07-13T02:00:28;81042.38;;;9.37;60.06
62680;BME280;68213;40.528;44.712;2023-07-13T02:01:28;81039.88;;;9.39;60.16
62680;BME280;68213;40.528;44.712;2023-07-13T02:02:29;81041.38;;;9.42;59.90
62680;BME280;68213;40.528;44.712;2023-07-13T02:03:30;81038.22;;;9.44;59.79
62680;BME280;68213;40.528;44.712;2023-07-13T02:04:31;81047.47;;;9.45;60.04
62680;BME280;68213;40.528;44.712;2023-07-13T02:05:31;81043.03;;;9.47;59.92
62680;BME280;68213;40.528;44.712;2023-07-13T02:06:32;81043.16;;;9.49;60.04
62680;BME280;68213;40.528;44.712;2023-07-13T02:07:33;81038.59;;;9.50;59.71
62680;BME280;68213;40.528;44.712;2023-07-13T02:08:34;81044.09;;;9.54;59.61
62680;BME280;68213;40.528;44.712;2023-07-13T02:09:35;81041.19;;;9.60;59.91
62680;BME280;68213;40.528;44.712;2023-07-13T02:10:37;81042.94;;;9.67;59.26
62680;BME280;68213;40.528;44.712;2023-07-13T02:11:38;81041.84;;;9.70;59.23
62680;BME280;68213;40.528;44.712;2023-07-13T02:12:38;81042.91;;;9.77;58.75
62680;BME280;68213;40.528;44.712;2023-07-13T02:13:42;81039.84;;;9.80;58.87
62680;BME280;68213;40.528;44.712;2023-07-13T02:14:42;81038.59;;;9.81;58.97
62680;BME280;68213;40.528;44.712;2023-07-13T02:15:43;81045.47;;;9.87;58.92
62680;BME280;68213;40.528;44.712;2023-07-13T02:16:44;81020.94;;;9.72;58.37
62680;BME280;68213;40.528;44.712;2023-07-13T02:17:49;81049.38;;;9.86;58.38
62680;BME280;68213;40.528;44.712;2023-07-13T02:19:09;81042.84;;;9.87;58.31
62680;BME280;68213;40.528;44.712;2023-07-13T02:20:10;81045.88;;;9.93;57.49
62680;BME280;68213;40.528;44.712;2023-07-13T02:21:11;81044.06;;;9.95;57.36
62680;BME280;68213;40.528;44.712;2023-07-13T02:22:11;81044.31;;;9.99;57.27
62680;BME280;68213;40.528;44.712;2023-07-13T02:23:12;81042.38;;;10.00;56.47
62680;BME280;68213;40.528;44.712;2023-07-13T02:24:13;81048.69;;;10.07;56.90
62680;BME280;68213;40.528;44.712;2023-07-13T02:25:17;81044.25;;;10.09;56.29
62680;BME280;68213;40.528;44.712;2023-07-13T02:26:19;81049.06;;;10.13;56.80
62680;BME280;68213;40.528;44.712;2023-07-13T02:27:20;81050.03;;;10.18;56.23
62680;BME280;68213;40.528;44.712;2023-07-13T02:28:20;81052.22;;;10.21;56.57
62680;BME280;68213;40.528;44.712;2023-07-13T02:29:21;81054.84;;;10.21;56.58
62680;BME280;68213;40.528;44.712;2023-07-13T02:30:22;81049.59;;;10.21;56.52
62680;BME280;68213;40.528;44.712;2023-07-13T02:31:25;81049.28;;;10.27;56.40
62680;BME280;68213;40.528;44.712;2023-07-13T02:32:26;81048.84;;;10.30;56.36
62680;BME280;68213;40.528;44.712;2023-07-13T02:33:27;81049.66;;;10.33;57.11
62680;BME280;68213;40.528;44.712;2023-07-13T02:34:27;81046.63;;;10.37;56.92
62680;BME280;68213;40.528;44.712;2023-07-13T02:35:28;81040.25;;;10.40;56.90
62680;BME280;68213;40.528;44.712;2023-07-13T02:36:29;81041.06;;;10.42;57.22
62680;BME280;68213;40.528;44.712;2023-07-13T02:37:30;81054.31;;;10.44;57.25
62680;BME280;68213;40.528;44.712;2023-07-13T02:38:35;81044.63;;;10.47;57.16
62680;BME280;68213;40.528;44.712;2023-07-13T02:39:36;81045.56;;;10.52;57.46
62680;BME280;68213;40.528;44.712;2023-07-13T02:40:37;81052.19;;;10.53;57.44
62680;BME280;68213;40.528;44.712;2023-07-13T02:41:38;81052.44;;;10.57;57.72
62680;BME280;68213;40.528;44.712;2023-07-13T02:42:39;81056.56;;;10.60;57.83
62680;BME280;68213;40.528;44.712;2023-07-13T02:43:40;81056.69;;;10.62;57.98
62680;BME280;68213;40.528;44.712;2023-07-13T02:44:41;81055.88;;;10.59;58.31
62680;BME280;68213;40.528;44.712;2023-07-13T02:45:45;81055.00;;;10.67;57.74
62680;BME280;68213;40.528;44.712;2023-07-13T02:46:46;81053.16;;;10.69;57.88
62680;BME280;68213;40.528;44.712;2023-07-13T02:47:47;81054.00;;;10.72;57.92
62680;BME280;68213;40.528;44.712;2023-07-13T02:48:47;81056.28;;;10.77;57.63
62680;BME280;68213;40.528;44.712;2023-07-13T02:49:48;81037.16;;;10.65;57.88
62680;BME280;68213;40.528;44.712;2023-07-13T02:50:49;81055.31;;;10.83;58.03
62680;BME280;68213;40.528;44.712;2023-07-13T02:51:51;81049.59;;;10.86;58.56
62680;BME280;68213;40.528;44.712;2023-07-13T02:52:52;81046.59;;;10.80;59.38
62680;BME280;68213;40.528;44.712;2023-07-13T02:53:52;81037.88;;;10.77;59.23
62680;BME280;68213;40.528;44.712;2023-07-13T02:54:53;81054.28;;;10.88;60.10
62680;BME280;68213;40.528;44.712;2023-07-13T02:55:54;81060.44;;;10.81;60.92
62680;BME280;68213;40.528;44.712;2023-07-13T02:56:55;81055.53;;;10.87;60.58
62680;BME280;68213;40.528;44.712;2023-07-13T02:57:56;81052.91;;;10.87;60.71
62680;BME280;68213;40.528;44.712;2023-07-13T02:58:58;81049.09;;;10.78;61.40
62680;BME280;68213;40.528;44.712;2023-07-13T02:59:58;81049.66;;;10.76;62.31
62680;BME280;68213;40.528;44.712;2023-07-13T03:01:06;81057.53;;;10.76;62.48
62680;BME280;68213;40.528;44.712;2023-07-13T03:02:08;81050.03;;;10.83;62.81
62680;BME280;68213;40.528;44.712;2023-07-13T03:03:10;81051.41;;;10.84;63.44
62680;BME280;68213;40.528;44.712;2023-07-13T03:04:10;81054.97;;;10.88;63.27
62680;BME280;68213;40.528;44.712;2023-07-13T03:05:12;81044.88;;;10.85;62.34
62680;BME280;68213;40.528;44.712;2023-07-13T03:06:14;81044.13;;;10.94;62.37
62680;BME280;68213;40.528;44.712;2023-07-13T03:07:14;81053.53;;;10.97;62.25
62680;BME280;68213;40.528;44.712;2023-07-13T03:08:16;81029.09;;;10.85;62.54
62680;BME280;68213;40.528;44.712;2023-07-13T03:09:20;81048.75;;;11.05;63.93
62680;BME280;68213;40.528;44.712;2023-07-13T03:10:21;81040.03;;;11.03;65.19
62680;BME280;68213;40.528;44.712;2023-07-13T03:11:22;81046.47;;;11.11;65.12
62680;BME280;68213;40.528;44.712;2023-07-13T03:12:24;81037.56;;;11.17;65.33
62680;BME280;68213;40.528;44.712;2023-07-13T03:13:24;81041.91;;;11.12;66.24
62680;BME280;68213;40.528;44.712;2023-07-13T03:14:25;81042.81;;;11.17;66.10
62680;BME280;68213;40.528;44.712;2023-07-13T03:15:26;81040.31;;;11.19;64.88
62680;BME280;68213;40.528;44.712;2023-07-13T03:16:28;81040.69;;;11.25;65.98
62680;BME280;68213;40.528;44.712;2023-07-13T03:17:29;81040.91;;;11.29;64.68
62680;BME280;68213;40.528;44.712;2023-07-13T03:18:29;81043.78;;;11.33;64.47
62680;BME280;68213;40.528;44.712;2023-07-13T03:20:43;81037.75;;;11.42;64.24
62680;BME280;68213;40.528;44.712;2023-07-13T03:21:44;81039.94;;;11.46;63.75
62680;BME280;68213;40.528;44.712;2023-07-13T03:22:45;81039.47;;;11.50;63.42
62680;BME280;68213;40.528;44.712;2023-07-13T03:23:46;81017.25;;;11.41;63.73
62680;BME280;68213;40.528;44.712;2023-07-13T03:24:47;81049.19;;;11.59;63.20
62680;BME280;68213;40.528;44.712;2023-07-13T03:25:48;81042.22;;;11.64;63.12
62680;BME280;68213;40.528;44.712;2023-07-13T03:26:49;81037.88;;;11.68;62.90
62680;BME280;68213;40.528;44.712;2023-07-13T03:27:50;81042.03;;;11.71;62.87
62680;BME280;68213;40.528;44.712;2023-07-13T03:28:51;81042.25;;;11.75;63.07
62680;BME280;68213;40.528;44.712;2023-07-13T03:29:51;81037.91;;;11.80;63.28
62680;BME280;68213;40.528;44.712;2023-07-13T03:31:00;81034.94;;;11.86;61.90
62680;BME280;68213;40.528;44.712;2023-07-13T03:32:01;81036.19;;;11.85;63.47
62680;BME280;68213;40.528;44.712;2023-07-13T03:33:01;81039.28;;;11.93;63.13
62680;BME280;68213;40.528;44.712;2023-07-13T03:34:02;81039.53;;;11.97;62.41
62680;BME280;68213;40.528;44.712;2023-07-13T03:35:03;81045.03;;;12.01;61.96
62680;BME280;68213;40.528;44.712;2023-07-13T03:36:06;81026.66;;;11.91;64.83
62680;BME280;68213;40.528;44.712;2023-07-13T03:37:07;81041.50;;;12.09;67.61
62680;BME280;68213;40.528;44.712;2023-07-13T03:38:07;81046.28;;;12.12;66.78
62680;BME280;68213;40.528;44.712;2023-07-13T03:39:08;81026.47;;;11.99;66.54
62680;BME280;68213;40.528;44.712;2023-07-13T03:40:12;81039.19;;;12.15;65.77
62680;BME280;68213;40.528;44.712;2023-07-13T03:41:14;81025.34;;;12.02;64.82
62680;BME280;68213;40.528;44.712;2023-07-13T03:42:15;81022.56;;;12.12;63.88
62680;BME280;68213;40.528;44.712;2023-07-13T03:43:16;81046.50;;;12.28;62.42
62680;BME280;68213;40.528;44.712;2023-07-13T03:44:17;81028.75;;;12.17;62.11
62680;BME280;68213;40.528;44.712;2023-07-13T03:45:18;81045.47;;;12.33;62.49
62680;BME280;68213;40.528;44.712;2023-07-13T03:46:19;81044.31;;;12.36;63.95
62680;BME280;68213;40.528;44.712;2023-07-13T03:47:22;81050.28;;;12.37;64.48
62680;BME280;68213;40.528;44.712;2023-07-13T03:48:24;81041.81;;;12.38;64.45
62680;BME280;68213;40.528;44.712;2023-07-13T03:49:27;81052.44;;;12.41;65.15
62680;BME280;68213;40.528;44.712;2023-07-13T03:50:29;81053.72;;;12.40;65.84
62680;BME280;68213;40.528;44.712;2023-07-13T03:51:32;81057.25;;;12.44;66.08
62680;BME280;68213;40.528;44.712;2023-07-13T03:52:33;81059.44;;;12.48;65.15
62680;BME280;68213;40.528;44.712;2023-07-13T03:53:37;81063.56;;;12.51;64.02
62680;BME280;68213;40.528;44.712;2023-07-13T03:54:38;81065.75;;;12.54;63.34
62680;BME280;68213;40.528;44.712;2023-07-13T03:55:39;81064.00;;;12.59;62.80
62680;BME280;68213;40.528;44.712;2023-07-13T03:56:40;81064.69;;;12.60;62.37
62680;BME280;68213;40.528;44.712;2023-07-13T03:57:40;81072.13;;;12.63;60.25
62680;BME280;68213;40.528;44.712;2023-07-13T03:58:42;81065.59;;;12.64;58.15
62680;BME280;68213;40.528;44.712;2023-07-13T03:59:43;81050.50;;;12.53;57.84
62680;BME280;68213;40.528;44.712;2023-07-13T04:00:44;81073.84;;;12.70;58.54
62680;BME280;68213;40.528;44.712;2023-07-13T04:01:44;81075.34;;;12.74;57.64
62680;BME280;68213;40.528;44.712;2023-07-13T04:02:48;81074.75;;;12.75;57.63
62680;BME280;68213;40.528;44.712;2023-07-13T04:03:50;81043.38;;;12.56;57.53
62680;BME280;68213;40.528;44.712;2023-07-13T04:04:51;81077.31;;;12.73;58.62
62680;BME280;68213;40.528;44.712;2023-07-13T04:05:56;81079.13;;;12.70;58.41
62680;BME280;68213;40.528;44.712;2023-07-13T04:07:00;81076.94;;;12.79;59.80
62680;BME280;68213;40.528;44.712;2023-07-13T04:08:01;81083.00;;;12.81;58.30
62680;BME280;68213;40.528;44.712;2023-07-13T04:09:02;81081.84;;;12.84;58.21
62680;BME280;68213;40.528;44.712;2023-07-13T04:10:06;81086.66;;;12.88;58.26
62680;BME280;68213;40.528;44.712;2023-07-13T04:11:07;81069.59;;;12.77;59.34
62680;BME280;68213;40.528;44.712;2023-07-13T04:12:08;81082.53;;;12.85;57.99
62680;BME280;68213;40.528;44.712;2023-07-13T04:13:08;81086.47;;;12.84;59.06
62680;BME280;68213;40.528;44.712;2023-07-13T04:14:11;81089.78;;;12.84;59.18
62680;BME280;68213;40.528;44.712;2023-07-13T04:15:12;81093.31;;;12.89;57.67
62680;BME280;68213;40.528;44.712;2023-07-13T04:16:15;81089.31;;;12.88;57.77
62680;BME280;68213;40.528;44.712;2023-07-13T04:17:16;81091.59;;;12.94;57.39
62680;BME280;68213;40.528;44.712;2023-07-13T04:18:16;81091.81;;;12.98;57.65
62680;BME280;68213;40.528;44.712;2023-07-13T04:19:18;81088.09;;;13.03;57.44
62680;BME280;68213;40.528;44.712;2023-07-13T04:20:20;81084.34;;;12.94;57.34
62680;BME280;68213;40.528;44.712;2023-07-13T04:21:22;81104.84;;;13.08;56.83
62680;BME280;68213;40.528;44.712;2023-07-13T04:22:22;81099.81;;;13.12;56.77
62680;BME280;68213;40.528;44.712;2023-07-13T04:23:23;81103.59;;;13.09;57.12
62680;BME280;68213;40.528;44.712;2023-07-13T04:24:24;81101.19;;;13.13;57.03
62680;BME280;68213;40.528;44.712;2023-07-13T04:25:25;81098.75;;;13.17;56.84
62680;BME280;68213;40.528;44.712;2023-07-13T04:26:25;81103.22;;;13.26;56.48
62680;BME280;68213;40.528;44.712;2023-07-13T04:27:26;81087.47;;;13.28;55.16
62680;BME280;68213;40.528;44.712;2023-07-13T04:28:29;81095.59;;;13.32;54.38
62680;BME280;68213;40.528;44.712;2023-07-13T04:29:29;81101.22;;;13.39;54.91
62680;BME280;68213;40.528;44.712;2023-07-13T04:30:31;81102.13;;;13.43;54.60
62680;BME280;68213;40.528;44.712;2023-07-13T04:31:32;81102.38;;;13.47;54.72
62680;BME280;68213;40.528;44.712;2023-07-13T04:32:33;81109.13;;;13.51;54.61
62680;BME280;68213;40.528;44.712;2023-07-13T04:33:33;81098.06;;;13.54;54.29
62680;BME280;68213;40.528;44.712;2023-07-13T04:34:34;81094.47;;;13.61;54.23
62680;BME280;68213;40.528;44.712;2023-07-13T04:35:35;81095.75;;;13.60;54.39
62680;BME280;68213;40.528;44.712;2023-07-13T04:36:36;81104.56;;;13.65;54.64
62680;BME280;68213;40.528;44.712;2023-07-13T04:37:37;81100.09;;;13.68;53.73
62680;BME280;68213;40.528;44.712;2023-07-13T04:38:38;81101.56;;;13.71;53.72
62680;BME280;68213;40.528;44.712;2023-07-13T04:39:39;81101.88;;;13.77;53.90
62680;BME280;68213;40.528;44.712;2023-07-13T04:40:40;81096.72;;;13.79;52.75
62680;BME280;68213;40.528;44.712;2023-07-13T04:41:40;81097.59;;;13.84;52.74
62680;BME280;68213;40.528;44.712;2023-07-13T04:42:41;81097.81;;;13.88;52.99
62680;BME280;68213;40.528;44.712;2023-07-13T04:43:42;81097.31;;;13.91;53.09
62680;BME280;68213;40.528;44.712;2023-07-13T04:44:50;81094.31;;;13.97;53.21
62680;BME280;68213;40.528;44.712;2023-07-13T04:45:52;81097.94;;;14.04;53.28
62680;BME280;68213;40.528;44.712;2023-07-13T04:46:53;81094.94;;;14.09;52.89
62680;BME280;68213;40.528;44.712;2023-07-13T04:47:54;81103.66;;;14.12;53.37
62680;BME280;68213;40.528;44.712;2023-07-13T04:48:54;81092.88;;;14.08;52.63
62680;BME280;68213;40.528;44.712;2023-07-13T04:49:55;81097.09;;;14.13;53.51
62680;BME280;68213;40.528;44.712;2023-07-13T04:50:58;81093.47;;;14.20;52.30
62680;BME280;68213;40.528;44.712;2023-07-13T04:52:02;81097.03;;;14.25;52.89
62680;BME280;68213;40.528;44.712;2023-07-13T04:53:03;81084.09;;;14.17;52.76
62680;BME280;68213;40.528;44.712;2023-07-13T04:54:04;81098.22;;;14.36;51.90
62680;BME280;68213;40.528;44.712;2023-07-13T04:55:08;81094.69;;;14.31;52.16
62680;BME280;68213;40.528;44.712;2023-07-13T04:56:09;81096.16;;;14.34;54.09
62680;BME280;68213;40.528;44.712;2023-07-13T04:57:12;81089.69;;;14.37;52.34
62680;BME280;68213;40.528;44.712;2023-07-13T04:58:12;81077.53;;;14.32;52.33
62680;BME280;68213;40.528;44.712;2023-07-13T04:59:13;81084.59;;;14.41;51.76
62680;BME280;68213;40.528;44.712;2023-07-13T05:00:14;81092.25;;;14.49;50.93
62680;BME280;68213;40.528;44.712;2023-07-13T05:01:15;81097.06;;;14.53;51.33
62680;BME280;68213;40.528;44.712;2023-07-13T05:02:16;81088.72;;;14.58;51.66
62680;BME280;68213;40.528;44.712;2023-07-13T05:03:17;81091.19;;;14.54;51.89
62680;BME280;68213;40.528;44.712;2023-07-13T05:04:18;81092.75;;;14.59;52.17
62680;BME280;68213;40.528;44.712;2023-07-13T05:05:18;81074.13;;;14.57;51.59
62680;BME280;68213;40.528;44.712;2023-07-13T05:06:20;81075.13;;;14.64;52.77
62680;BME280;68213;40.528;44.712;2023-07-13T05:07:21;81088.38;;;14.78;52.14
62680;BME280;68213;40.528;44.712;2023-07-13T05:08:22;81092.50;;;14.81;52.29
62680;BME280;68213;40.528;44.712;2023-07-13T05:09:23;81087.41;;;14.85;53.21
62680;BME280;68213;40.528;44.712;2023-07-13T05:10:23;81089.47;;;14.87;52.02
62680;BME280;68213;40.528;44.712;2023-07-13T05:11:24;81092.41;;;14.93;52.12
62680;BME280;68213;40.528;44.712;2023-07-13T05:12:26;81094.56;;;14.97;52.68
62680;BME280;68213;40.528;44.712;2023-07-13T05:13:26;81087.09;;;14.93;52.48
62680;BME280;68213;40.528;44.712;2023-07-13T05:14:27;81096.09;;;15.02;52.54
62680;BME280;68213;40.528;44.712;2023-07-13T05:15:29;81092.28;;;15.05;52.28
62680;BME280;68213;40.528;44.712;2023-07-13T05:16:30;81091.03;;;15.06;52.04
62680;BME280;68213;40.528;44.712;2023-07-13T05:17:32;81067.50;;;14.84;51.77
62680;BME280;68213;40.528;44.712;2023-07-13T05:18:33;81091.91;;;15.11;51.52
62680;BME280;68213;40.528;44.712;2023-07-13T05:19:34;81091.97;;;15.13;51.20
62680;BME280;68213;40.528;44.712;2023-07-13T05:20:34;81093.75;;;15.08;50.44
62680;BME280;68213;40.528;44.712;2023-07-13T05:21:35;81082.59;;;15.10;50.84
62680;BME280;68213;40.528;44.712;2023-07-13T05:22:36;81091.19;;;15.24;51.27
62680;BME280;68213;40.528;44.712;2023-07-13T05:23:38;81085.63;;;15.18;50.68
62680;BME280;68213;40.528;44.712;2023-07-13T05:24:39;81096.78;;;15.30;50.14
62680;BME280;68213;40.528;44.712;2023-07-13T05:25:40;81093.53;;;15.32;48.32
62680;BME280;68213;40.528;44.712;2023-07-13T05:26:40;81094.00;;;15.42;48.48
62680;BME280;68213;40.528;44.712;2023-07-13T05:28:54;81090.09;;;15.43;48.06